Time;durP1;ratioP1;P1;durP2;ratioP2;P2;SDS_P1;SDS_P2;PMS_P1;PMS_P2;Temp;Humidity;BMP_temperature;BMP_pressure;BME280_temperature;BME280_humidity;BME280_pressure;Samples;Min_cycle;Max_cycle;Signal;HPM_P1;HPM_P2
2022/11/16 00:02:08;;;;;;;23.47;17.90;;;9.80;88.10;;;;;;5074698;28;20203;-87
2022/11/16 00:04:34;;;;;;;21.83;16.00;;;9.70;88.20;;;;;;5075678;28;20241;-86
2022/11/16 00:07:01;;;;;;;25.30;18.00;;;9.60;88.40;;;;;;5075671;28;20587;-86
2022/11/16 00:09:31;;;;;;;24.10;18.37;;;9.60;88.40;;;;;;5075610;28;20543;-86
2022/11/16 00:11:59;;;;;;;21.43;17.03;;;9.50;88.50;;;;;;5074390;28;20179;-86
2022/11/16 00:14:27;;;;;;;24.70;18.13;;;9.50;88.40;;;;;;5074132;28;20627;-87
2022/11/16 00:16:53;;;;;;;24.73;17.67;;;9.50;88.40;;;;;;5074239;28;20241;-87
2022/11/16 00:19:18;;;;;;;23.90;18.23;;;9.50;88.50;;;;;;5074217;28;20641;-87
2022/11/16 00:21:44;;;;;;;24.23;18.07;;;9.30;88.70;;;;;;5074111;28;20635;-87
2022/11/16 00:24:12;;;;;;;22.90;18.30;;;9.20;89.00;;;;;;5074136;28;20198;-87
2022/11/16 00:26:38;;;;;;;27.33;19.33;;;9.20;89.20;;;;;;5075497;28;20163;-87
2022/11/16 00:29:03;;;;;;;26.13;18.87;;;9.00;89.40;;;;;;5074260;28;20186;-87
2022/11/16 00:31:29;;;;;;;25.90;18.00;;;8.90;89.60;;;;;;5074018;28;20172;-86
2022/11/16 00:33:54;;;;;;;25.97;18.77;;;8.90;89.80;;;;;;5075233;28;20178;-86
2022/11/16 00:36:20;;;;;;;26.70;19.03;;;8.90;89.80;;;;;;5075356;28;20551;-86
2022/11/16 00:38:45;;;;;;;29.40;20.23;;;8.80;89.90;;;;;;5075052;28;20179;-87
2022/11/16 00:41:11;;;;;;;26.17;19.20;;;8.80;90.00;;;;;;5074934;28;20195;-87
2022/11/16 00:43:37;;;;;;;26.20;18.97;;;8.70;90.20;;;;;;5073858;28;20177;-87
2022/11/16 00:46:03;;;;;;;31.90;20.57;;;8.70;90.20;;;;;;5073741;28;20281;-87
2022/11/16 00:48:28;;;;;;;30.87;21.53;;;8.70;90.30;;;;;;5075135;28;20546;-87
2022/11/16 00:50:54;;;;;;;28.50;21.43;;;8.70;90.30;;;;;;5074853;28;20179;-86
2022/11/16 00:53:20;;;;;;;30.90;21.47;;;8.60;90.40;;;;;;5075087;28;20221;-87
2022/11/16 00:55:46;;;;;;;33.50;21.77;;;8.60;90.40;;;;;;5073781;28;20294;-86
2022/11/16 00:58:12;;;;;;;33.13;23.20;;;8.60;90.50;;;;;;5073362;28;20202;-87
2022/11/16 01:00:39;;;;;;;31.43;22.80;;;8.60;90.50;;;;;;5073621;28;20210;-87
2022/11/16 01:03:05;;;;;;;32.27;22.77;;;8.60;90.50;;;;;;5073347;28;20218;-87
2022/11/16 01:05:30;;;;;;;30.00;21.00;;;8.60;90.60;;;;;;5074635;28;20191;-87
2022/11/16 01:07:56;;;;;;;34.50;23.37;;;8.70;90.60;;;;;;5074469;28;20182;-87
2022/11/16 01:10:24;;;;;;;31.27;21.20;;;8.70;90.60;;;;;;5074373;28;20179;-87
2022/11/16 01:12:51;;;;;;;30.90;20.63;;;8.70;90.50;;;;;;5074386;28;20325;-87
2022/11/16 01:15:19;;;;;;;32.07;22.67;;;8.70;90.50;;;;;;5072965;28;20252;-87
2022/11/16 01:17:44;;;;;;;34.87;22.50;;;8.70;90.50;;;;;;5072967;28;20189;-87
2022/11/16 01:20:17;;;;;;;31.67;22.93;;;8.80;90.40;;;;;;5074225;28;20293;-87
2022/11/16 01:22:43;;;;;;;27.67;20.13;;;8.70;90.30;;;;;;5074246;28;20156;-86
2022/11/16 01:25:09;;;;;;;29.73;21.07;;;8.80;90.20;;;;;;5074124;28;20198;-87
2022/11/16 01:27:36;;;;;;;31.47;20.67;;;8.80;90.00;;;;;;5072657;28;20175;-86
2022/11/16 01:30:01;;;;;;;31.87;22.57;;;8.80;90.00;;;;;;5072743;28;20178;-86
2022/11/16 01:32:27;;;;;;;32.63;22.73;;;8.80;90.00;;;;;;5073903;28;20214;-87
2022/11/16 01:34:52;;;;;;;35.60;22.13;;;8.80;90.00;;;;;;5072633;28;20199;-87
2022/11/16 01:37:18;;;;;;;34.27;22.47;;;8.70;90.00;;;;;;5072681;28;20186;-88
2022/11/16 01:39:44;;;;;;;29.40;19.80;;;8.70;90.10;;;;;;5074051;28;20175;-87
2022/11/16 01:42:18;;;;;;;33.57;22.73;;;8.70;90.20;;;;;;5072627;28;20186;-87
2022/11/16 01:44:44;;;;;;;36.97;22.27;;;8.60;90.30;;;;;;5073701;28;20248;-87
2022/11/16 01:47:12;;;;;;;41.00;23.87;;;8.60;90.40;;;;;;5073741;28;20167;-87
2022/11/16 01:49:44;;;;;;;36.37;21.80;;;8.50;90.50;;;;;;5072367;28;20175;-87
2022/11/16 01:52:15;;;;;;;37.90;22.53;;;8.50;90.60;;;;;;5073920;28;20162;-87
2022/11/16 01:54:44;;;;;;;31.20;20.43;;;8.40;90.60;;;;;;5073563;28;20195;-86
2022/11/16 01:57:14;;;;;;;39.77;25.37;;;8.40;90.60;;;;;;5073430;28;20237;-87
2022/11/16 01:59:40;;;;;;;33.27;22.80;;;8.40;90.60;;;;;;5073510;28;20172;-87
2022/11/16 02:02:06;;;;;;;37.10;23.83;;;8.40;90.60;;;;;;5072218;28;20668;-86
2022/11/16 02:04:31;;;;;;;31.07;18.50;;;8.30;90.60;;;;;;5073635;28;20191;-87
2022/11/16 02:07:31;;;;;;;35.37;22.77;;;8.30;90.50;;;;;;5073431;28;20178;-86
2022/11/16 02:10:51;;;;;;;33.03;20.87;;;8.30;90.50;;;;;;5073267;28;20176;-87
2022/11/16 02:13:48;;;;;;;40.07;24.73;;;8.30;90.50;;;;;;5067399;28;20183;-86
2022/11/16 02:16:33;;;;;;;39.07;23.63;;;8.30;90.60;;;;;;5064967;28;20752;-87
2022/11/16 02:19:22;;;;;;;40.60;24.97;;;8.30;90.70;;;;;;5073741;28;20629;-87
2022/11/16 02:22:05;;;;;;;39.43;26.37;;;8.20;90.80;;;;;;5072264;28;20276;-87
2022/11/16 02:24:52;;;;;;;39.67;24.33;;;8.20;90.80;;;;;;5073305;28;20187;-86
2022/11/16 02:27:30;;;;;;;37.53;25.00;;;8.20;90.80;;;;;;5073255;28;20175;-87
2022/11/16 02:29:56;;;;;;;36.03;22.63;;;8.20;90.70;;;;;;5072112;28;20182;-86
2022/11/16 02:33:00;;;;;;;37.73;25.17;;;8.20;90.70;;;;;;5072754;28;20185;-87
2022/11/16 02:35:44;;;;;;;31.43;19.67;;;8.10;90.70;;;;;;5071118;28;20203;-87
2022/11/16 02:38:17;;;;;;;40.10;24.03;;;8.10;90.80;;;;;;5073213;28;20614;-87
2022/11/16 02:40:47;;;;;;;32.47;19.53;;;8.10;90.70;;;;;;5075717;28;20201;-87
2022/11/16 02:43:32;;;;;;;40.40;24.10;;;8.10;90.70;;;;;;5076164;28;20266;-87
2022/11/16 02:46:02;;;;;;;38.33;25.53;;;8.00;90.70;;;;;;5077242;28;20186;-87
2022/11/16 02:48:35;;;;;;;33.53;21.13;;;8.00;90.70;;;;;;5076813;28;20183;-87
2022/11/16 02:51:02;;;;;;;37.10;23.13;;;8.00;90.80;;;;;;5077129;28;20223;-87
2022/11/16 02:53:27;;;;;;;38.60;23.93;;;8.00;90.80;;;;;;5076671;28;20274;-86
2022/11/16 02:55:53;;;;;;;40.93;24.70;;;8.00;90.80;;;;;;5075643;28;20230;-86
2022/11/16 02:58:24;;;;;;;38.47;22.77;;;8.00;90.80;;;;;;5075726;28;20202;-87
2022/11/16 03:00:57;;;;;;;42.33;26.80;;;8.00;90.80;;;;;;5076843;28;20563;-86
2022/11/16 03:03:53;;;;;;;41.13;26.80;;;8.00;90.80;;;;;;5075639;28;20215;-86
2022/11/16 03:06:32;;;;;;;43.10;27.63;;;8.00;90.90;;;;;;5076752;28;20202;-87
2022/11/16 03:09:09;;;;;;;40.97;26.47;;;7.90;90.90;;;;;;5077056;28;20156;-87
2022/11/16 03:11:59;;;;;;;41.90;26.37;;;7.90;90.90;;;;;;5076299;28;20266;-87
2022/11/16 03:14:41;;;;;;;40.40;25.50;;;7.90;90.90;;;;;;5075402;28;20744;-86
2022/11/16 03:17:16;;;;;;;44.60;25.70;;;7.90;91.00;;;;;;5075671;28;20186;-87
2022/11/16 03:19:50;;;;;;;43.77;24.60;;;7.90;90.90;;;;;;5075314;28;20555;-87
2022/11/16 03:22:27;;;;;;;41.20;24.00;;;7.80;91.00;;;;;;5075253;28;20271;-87
2022/11/16 03:24:53;;;;;;;43.80;26.50;;;7.90;91.00;;;;;;5076363;28;20210;-87
2022/11/16 03:27:39;;;;;;;42.90;25.43;;;7.80;91.00;;;;;;5076370;28;20168;-86
2022/11/16 03:30:11;;;;;;;50.40;26.53;;;7.80;91.00;;;;;;5076333;28;20155;-87
2022/11/16 03:33:08;;;;;;;50.87;26.47;;;7.80;91.00;;;;;;5076871;28;20167;-86
2022/11/16 03:35:45;;;;;;;49.47;28.53;;;7.80;91.10;;;;;;5074945;28;20234;-86
2022/11/16 03:38:13;;;;;;;46.07;24.97;;;7.80;91.10;;;;;;5075043;28;20634;-87
2022/11/16 03:40:40;;;;;;;48.47;27.43;;;7.80;91.20;;;;;;5074920;28;20248;-87
2022/11/16 03:43:06;;;;;;;52.03;27.87;;;7.80;91.20;;;;;;5076383;28;20173;-87
2022/11/16 03:45:32;;;;;;;42.30;23.63;;;7.80;91.10;;;;;;5076024;28;20202;-86
2022/11/16 03:47:59;;;;;;;45.03;24.77;;;7.80;91.20;;;;;;5075904;28;20175;-87
2022/11/16 03:50:25;;;;;;;49.17;27.03;;;7.80;91.20;;;;;;5074688;28;20642;-87
2022/11/16 03:52:50;;;;;;;48.60;27.43;;;7.80;91.20;;;;;;5074616;28;20183;-87
2022/11/16 03:55:16;;;;;;;54.07;29.03;;;7.80;91.10;;;;;;5074541;28;20252;-86
2022/11/16 03:57:41;;;;;;;53.87;29.77;;;7.80;91.10;;;;;;5075678;28;20202;-87
2022/11/16 04:00:08;;;;;;;56.27;30.93;;;7.80;91.10;;;;;;5075865;28;20235;-87
2022/11/16 04:02:33;;;;;;;46.80;28.60;;;7.80;91.10;;;;;;5074659;28;20199;-87
2022/11/16 04:24:21;;;;;;;49.23;27.63;;;7.80;91.20;;;;;;5075658;28;20202;-86
2022/11/16 04:29:38;;;;;;;42.83;25.50;;;7.80;91.30;;;;;;5075865;28;20527;-87
2022/11/16 04:37:48;;;;;;;52.70;29.40;;;7.80;91.30;;;;;;5075094;28;20171;-87
2022/11/16 04:40:15;;;;;;;53.53;28.97;;;7.80;91.40;;;;;;5073784;28;20203;-87
2022/11/16 04:42:41;;;;;;;51.97;26.83;;;7.70;91.50;;;;;;5075029;28;20171;-87
2022/11/16 04:47:51;;;;;;;52.70;26.87;;;7.70;91.70;;;;;;5075019;28;20166;-87
2022/11/16 04:50:18;;;;;;;56.90;28.17;;;7.70;91.80;;;;;;5073569;28;20183;-87
2022/11/16 04:52:43;;;;;;;49.73;28.57;;;7.70;91.90;;;;;;5074907;28;20171;-87
2022/11/16 04:55:10;;;;;;;57.57;29.10;;;7.60;92.00;;;;;;5074086;28;20237;-87
2022/11/16 04:57:36;;;;;;;52.30;27.37;;;7.60;92.10;;;;;;5073821;28;20195;-87
2022/11/16 05:00:03;;;;;;;46.37;25.63;;;7.60;92.20;;;;;;5073440;28;20669;-87
2022/11/16 05:02:28;;;;;;;47.07;24.97;;;7.60;92.20;;;;;;5073976;28;20237;-87
2022/11/16 05:04:54;;;;;;;49.97;28.03;;;7.60;92.20;;;;;;5073262;28;20616;-87
2022/11/16 05:07:19;;;;;;;55.23;28.43;;;7.50;92.30;;;;;;5074174;28;20202;-87
2022/11/16 05:09:46;;;;;;;51.83;29.37;;;7.50;92.30;;;;;;5073296;28;20717;-87
2022/11/16 05:12:18;;;;;;;60.77;31.13;;;7.50;92.40;;;;;;5073138;28;20260;-87
2022/11/16 05:14:44;;;;;;;56.80;28.17;;;7.50;92.40;;;;;;5073107;28;20191;-87
2022/11/16 05:17:10;;;;;;;53.90;27.87;;;7.50;92.50;;;;;;5073589;28;20187;-87
2022/11/16 05:22:20;;;;;;;53.27;28.87;;;7.50;92.50;;;;;;5074759;28;20163;-87
2022/11/16 05:24:45;;;;;;;49.90;27.00;;;7.50;92.60;;;;;;5072892;28;20191;-87
2022/11/16 05:27:13;;;;;;;55.30;31.53;;;7.50;92.60;;;;;;5074121;28;20512;-87
2022/11/16 05:29:39;;;;;;;57.97;29.70;;;7.50;92.60;;;;;;5074042;28;20587;-87
2022/11/16 05:32:06;;;;;;;51.03;26.33;;;7.50;92.60;;;;;;5074093;28;20213;-87
2022/11/16 05:34:32;;;;;;;59.70;31.43;;;7.50;92.60;;;;;;5072688;28;20244;-87
2022/11/16 05:36:58;;;;;;;51.33;27.00;;;7.50;92.60;;;;;;5072788;28;20716;-87
2022/11/16 05:39:24;;;;;;;56.93;30.43;;;7.50;92.50;;;;;;5072653;28;20641;-87
2022/11/16 05:41:50;;;;;;;54.70;31.20;;;7.50;92.50;;;;;;5072493;28;20707;-87
2022/11/16 05:44:16;;;;;;;54.23;29.00;;;7.50;92.50;;;;;;5072694;28;20194;-87
2022/11/16 05:46:42;;;;;;;57.13;31.87;;;7.50;92.50;;;;;;5072919;28;20174;-87
2022/11/16 05:49:08;;;;;;;56.57;32.73;;;7.50;92.50;;;;;;5072507;28;20171;-87
2022/11/16 05:51:35;;;;;;;54.37;29.40;;;7.60;92.50;;;;;;5073645;28;20167;-87
2022/11/16 05:54:02;;;;;;;54.40;28.77;;;7.60;92.50;;;;;;5072435;28;20182;-87
2022/11/16 05:56:28;;;;;;;45.40;28.17;;;7.60;92.50;;;;;;5073011;28;20199;-87
2022/11/16 05:58:54;;;;;;;47.93;26.63;;;7.50;92.40;;;;;;5072313;28;20183;-87
2022/11/16 06:01:19;;;;;;;59.40;29.63;;;7.60;92.40;;;;;;5072482;28;20254;-87
2022/11/16 06:03:45;;;;;;;45.23;26.00;;;7.50;92.30;;;;;;5073532;28;20559;-87
2022/11/16 06:06:11;;;;;;;50.60;28.80;;;7.50;92.30;;;;;;5073462;28;20191;-87
2022/11/16 06:08:36;;;;;;;47.83;26.97;;;7.50;92.40;;;;;;5073479;28;20175;-87
2022/11/16 06:11:04;;;;;;;51.80;28.20;;;7.50;92.30;;;;;;5073734;28;20187;-87
2022/11/16 06:13:30;;;;;;;44.00;24.93;;;7.50;92.30;;;;;;5072422;28;20175;-87
2022/11/16 06:15:55;;;;;;;45.00;23.10;;;7.50;92.30;;;;;;5071396;28;20677;-87
2022/11/16 06:18:21;;;;;;;44.33;27.43;;;7.50;92.30;;;;;;5073299;28;20209;-87
2022/11/16 06:20:47;;;;;;;45.93;26.73;;;7.50;92.20;;;;;;5073393;28;20199;-87
2022/11/16 06:23:13;;;;;;;49.53;29.13;;;7.50;92.30;;;;;;5072042;28;20236;-87
2022/11/16 06:25:39;;;;;;;49.30;28.20;;;7.50;92.30;;;;;;5071984;28;20199;-87
2022/11/16 06:28:06;;;;;;;47.50;28.07;;;7.50;92.30;;;;;;5073273;28;20163;-87
2022/11/16 06:30:31;;;;;;;48.30;25.10;;;7.50;92.20;;;;;;5073209;28;20182;-87
2022/11/16 06:32:57;;;;;;;44.70;26.07;;;7.50;92.20;;;;;;5072841;28;20175;-87
2022/11/16 06:35:22;;;;;;;45.30;26.03;;;7.50;92.20;;;;;;5071853;28;20544;-87
2022/11/16 06:37:48;;;;;;;41.67;24.70;;;7.50;92.20;;;;;;5071989;28;20300;-87
2022/11/16 06:40:13;;;;;;;44.60;26.07;;;7.50;92.20;;;;;;5073071;28;20199;-87
2022/11/16 06:42:40;;;;;;;42.73;24.80;;;7.50;92.20;;;;;;5071884;28;20183;-87
2022/11/16 06:45:06;;;;;;;48.90;28.00;;;7.50;92.20;;;;;;5072999;28;20608;-87
2022/11/16 06:47:32;;;;;;;45.63;26.10;;;7.50;92.20;;;;;;5071929;28;20178;-87
2022/11/16 06:49:57;;;;;;;41.77;27.07;;;7.50;92.20;;;;;;5071725;28;20174;-87
2022/11/16 06:52:23;;;;;;;46.63;24.30;;;7.50;92.30;;;;;;5071898;28;20171;-88
2022/11/16 06:54:48;;;;;;;47.77;26.60;;;7.50;92.30;;;;;;5072927;28;20539;-87
2022/11/16 06:57:14;;;;;;;50.93;27.17;;;7.50;92.40;;;;;;5071576;28;20205;-88
2022/11/16 06:59:39;;;;;;;41.93;26.30;;;7.50;92.40;;;;;;5072085;28;20179;-88
2022/11/16 07:02:05;;;;;;;45.17;24.53;;;7.50;92.40;;;;;;5072935;28;20206;-88
2022/11/16 07:04:31;;;;;;;45.83;25.30;;;7.50;92.50;;;;;;5072863;28;20201;-87
2022/11/16 07:06:57;;;;;;;47.13;27.77;;;7.40;92.40;;;;;;5071681;28;20176;-88
2022/11/16 07:09:22;;;;;;;42.87;26.20;;;7.50;92.50;;;;;;5073113;28;20309;-86
2022/11/16 07:11:48;;;;;;;43.17;24.10;;;7.40;92.50;;;;;;5071700;28;20656;-86
2022/11/16 07:14:13;;;;;;;49.93;27.27;;;7.40;92.50;;;;;;5071931;28;20175;-86
2022/11/16 07:16:39;;;;;;;45.27;26.27;;;7.40;92.60;;;;;;5072818;28;20183;-86
2022/11/16 07:19:05;;;;;;;46.53;27.57;;;7.40;92.60;;;;;;5072883;28;20249;-86
2022/11/16 07:21:31;;;;;;;47.57;25.50;;;7.40;92.60;;;;;;5072605;28;20195;-86
2022/11/16 07:23:56;;;;;;;41.30;23.70;;;7.40;92.60;;;;;;5072819;28;20179;-86
2022/11/16 07:26:22;;;;;;;44.70;25.73;;;7.40;92.60;;;;;;5074395;28;20188;-86
2022/11/16 07:28:47;;;;;;;39.30;23.87;;;7.40;92.60;;;;;;5075236;28;20171;-86
2022/11/16 07:31:14;;;;;;;45.13;26.50;;;7.40;92.60;;;;;;5075314;28;20597;-85
2022/11/16 07:33:40;;;;;;;40.03;24.33;;;7.40;92.60;;;;;;5075268;28;20171;-86
2022/11/16 07:36:13;;;;;;;48.33;25.87;;;7.40;92.60;;;;;;5075212;28;20703;-86
2022/11/16 07:38:38;;;;;;;40.13;25.40;;;7.40;92.60;;;;;;5075236;28;20206;-86
2022/11/16 07:41:06;;;;;;;40.20;24.17;;;7.40;92.50;;;;;;5075037;28;20637;-88
2022/11/16 07:43:35;;;;;;;44.53;26.73;;;7.40;92.50;;;;;;5075115;28;20199;-88
2022/11/16 07:46:06;;;;;;;42.70;25.53;;;7.30;92.50;;;;;;5074919;28;20192;-88
2022/11/16 07:48:32;;;;;;;41.93;24.53;;;7.30;92.50;;;;;;5075854;28;20221;-88
2022/11/16 07:51:02;;;;;;;40.67;25.53;;;7.40;92.40;;;;;;5074949;28;20179;-88
2022/11/16 07:53:29;;;;;;;46.43;27.57;;;7.40;92.40;;;;;;5074856;28;20621;-88
2022/11/16 07:55:55;;;;;;;40.33;22.70;;;7.40;92.30;;;;;;5076169;28;20183;-88
2022/11/16 07:58:21;;;;;;;40.30;25.37;;;7.50;92.30;;;;;;5076133;28;20566;-88
2022/11/16 08:00:47;;;;;;;38.20;25.20;;;7.40;92.20;;;;;;5075858;28;20283;-88
2022/11/16 08:03:14;;;;;;;38.93;25.93;;;7.50;92.30;;;;;;5076030;28;20645;-88
2022/11/16 08:05:39;;;;;;;41.60;25.30;;;7.40;92.20;;;;;;5074649;28;20198;-88
2022/11/16 08:08:05;;;;;;;40.63;24.13;;;7.40;92.20;;;;;;5075570;28;20548;-88
2022/11/16 08:10:31;;;;;;;36.83;22.40;;;7.40;92.20;;;;;;5074786;28;20617;-88
2022/11/16 08:12:57;;;;;;;42.90;24.40;;;7.40;92.10;;;;;;5074526;28;20179;-88
2022/11/16 08:15:24;;;;;;;43.97;26.80;;;7.40;92.10;;;;;;5074760;28;20195;-88
2022/11/16 08:17:49;;;;;;;41.13;26.67;;;7.40;92.00;;;;;;5074896;28;20184;-88
2022/11/16 08:20:16;;;;;;;39.80;25.60;;;7.40;92.00;;;;;;5074374;28;20214;-88
2022/11/16 08:22:42;;;;;;;38.20;23.90;;;7.50;92.00;;;;;;5075705;28;20172;-88
2022/11/16 08:25:08;;;;;;;38.47;25.13;;;7.40;92.00;;;;;;5074441;28;20195;-88
2022/11/16 08:27:34;;;;;;;49.07;26.47;;;7.40;91.90;;;;;;5074276;28;20218;-88
2022/11/16 08:30:02;;;;;;;44.30;27.03;;;7.40;91.90;;;;;;5075424;28;20167;-88
2022/11/16 08:32:28;;;;;;;43.87;28.57;;;7.40;91.90;;;;;;5074185;28;20167;-88
2022/11/16 08:34:54;;;;;;;43.47;27.03;;;7.40;91.90;;;;;;5074552;28;20203;-88
2022/11/16 08:37:19;;;;;;;45.27;27.67;;;7.40;91.90;;;;;;5073257;28;20267;-88
2022/11/16 08:39:45;;;;;;;46.30;26.53;;;7.40;92.00;;;;;;5074180;28;20622;-88
2022/11/16 08:42:10;;;;;;;39.37;21.53;;;7.40;92.00;;;;;;5074030;28;20616;-89
2022/11/16 08:44:36;;;;;;;40.23;22.43;;;7.40;91.90;;;;;;5073943;28;20192;-89
2022/11/16 08:47:02;;;;;;;42.40;23.27;;;7.40;91.80;;;;;;5074032;28;20187;-89
2022/11/16 08:49:28;;;;;;;39.63;24.27;;;7.40;91.70;;;;;;5074928;28;20202;-88
2022/11/16 08:51:53;;;;;;;49.60;30.30;;;7.50;91.70;;;;;;5074090;28;20183;-89
2022/11/16 08:54:19;;;;;;;44.70;28.83;;;7.50;91.70;;;;;;5075004;28;20681;-89
2022/11/16 08:56:45;;;;;;;47.67;29.37;;;7.50;91.70;;;;;;5073409;28;20279;-88
2022/11/16 08:59:11;;;;;;;43.47;24.17;;;7.50;91.70;;;;;;5077352;28;20179;-89
2022/11/16 09:01:37;;;;;;;49.63;30.97;;;7.40;91.70;;;;;;5073529;28;20278;-89
2022/11/16 09:04:02;;;;;;;49.90;30.57;;;7.50;91.70;;;;;;5073585;28;20195;-88
2022/11/16 09:06:28;;;;;;;50.37;29.63;;;7.50;91.60;;;;;;5073625;28;20195;-88
2022/11/16 09:08:54;;;;;;;49.20;31.30;;;7.50;91.60;;;;;;5074853;28;20543;-88
2022/11/16 09:11:22;;;;;;;49.90;28.63;;;7.50;91.50;;;;;;5075234;28;20183;-89
2022/11/16 09:13:49;;;;;;;50.73;29.87;;;7.50;91.50;;;;;;5075120;28;20233;-88
2022/11/16 09:16:15;;;;;;;43.03;24.57;;;7.50;91.50;;;;;;5074686;28;20240;-89
2022/11/16 09:18:42;;;;;;;44.73;27.33;;;7.50;91.30;;;;;;5074563;28;20172;-90
2022/11/16 09:21:08;;;;;;;48.80;29.47;;;7.50;91.40;;;;;;5074430;28;20195;-88
2022/11/16 09:23:33;;;;;;;52.37;29.97;;;7.50;91.40;;;;;;5073188;28;20766;-88
2022/11/16 09:26:01;;;;;;;48.73;28.57;;;7.50;91.30;;;;;;5074583;28;20569;-88
2022/11/16 09:28:27;;;;;;;45.53;26.93;;;7.50;91.30;;;;;;5074544;28;20246;-87
2022/11/16 09:30:52;;;;;;;46.83;28.43;;;7.50;91.30;;;;;;5074856;28;20654;-87
2022/11/16 09:33:18;;;;;;;48.17;29.30;;;7.60;91.30;;;;;;5073157;28;20179;-89
2022/11/16 09:35:44;;;;;;;51.10;29.77;;;7.60;91.30;;;;;;5073124;28;20301;-89
2022/11/16 09:38:09;;;;;;;52.03;31.80;;;7.60;91.30;;;;;;5073589;28;20645;-87
2022/11/16 09:40:43;;;;;;;48.07;29.33;;;7.60;91.30;;;;;;5074913;28;20364;-89
2022/11/16 09:43:42;;;;;;;45.83;28.33;;;7.60;91.20;;;;;;5074671;28;20152;-87
2022/11/16 09:46:42;;;;;;;45.13;26.70;;;7.60;91.20;;;;;;5073015;28;20248;-88
2022/11/16 09:49:19;;;;;;;41.23;24.10;;;7.60;91.10;;;;;;5072259;28;20202;-88
2022/11/16 09:51:49;;;;;;;43.07;27.20;;;7.50;91.00;;;;;;5072814;28;20637;-88
2022/11/16 09:54:21;;;;;;;48.17;26.73;;;7.60;91.10;;;;;;5072849;28;20218;-89
2022/11/16 09:56:52;;;;;;;44.60;28.10;;;7.60;91.10;;;;;;5073733;28;20271;-89
2022/11/16 09:59:28;;;;;;;52.07;28.20;;;7.60;91.10;;;;;;5072808;28;20168;-89
2022/11/16 10:02:25;;;;;;;45.93;29.10;;;7.60;91.10;;;;;;5072615;28;20225;-89
2022/11/16 10:05:19;;;;;;;47.90;29.20;;;7.60;91.00;;;;;;5065924;28;20289;-87
2022/11/16 10:07:53;;;;;;;49.37;29.17;;;7.70;91.00;;;;;;5073612;28;20684;-87
2022/11/16 10:10:37;;;;;;;50.33;31.30;;;7.60;91.00;;;;;;5074732;28;20167;-88
2022/11/16 10:13:24;;;;;;;51.77;31.27;;;7.60;91.00;;;;;;5074576;28;20171;-89
2022/11/16 10:16:01;;;;;;;52.17;29.37;;;7.70;91.00;;;;;;5072957;28;20195;-88
2022/11/16 10:19:08;;;;;;;50.40;27.97;;;7.60;91.00;;;;;;5073654;28;20212;-87
2022/11/16 10:21:41;;;;;;;54.60;30.27;;;7.60;90.90;;;;;;5054455;28;20198;-87
2022/11/16 10:24:52;;;;;;;60.60;31.67;;;7.60;91.00;;;;;;5071476;28;20159;-87
2022/11/16 10:27:36;;;;;;;50.43;27.17;;;7.50;91.10;;;;;;5071870;28;20179;-88
2022/11/16 10:30:10;;;;;;;55.43;28.07;;;7.50;91.00;;;;;;5072191;28;20174;-88
2022/11/16 10:32:58;;;;;;;46.40;25.17;;;7.50;91.10;;;;;;5073650;28;20316;-88
2022/11/16 10:35:41;;;;;;;49.80;24.47;;;7.50;91.20;;;;;;5073555;28;20183;-87
2022/11/16 10:38:15;;;;;;;48.00;24.43;;;7.40;91.30;;;;;;5073763;28;20168;-88
2022/11/16 10:40:45;;;;;;;54.50;28.17;;;7.40;91.50;;;;;;5072377;28;20576;-88
2022/11/16 10:43:14;;;;;;;59.07;28.30;;;7.30;91.60;;;;;;5071886;28;20171;-88
2022/11/16 10:46:11;;;;;;;52.37;27.10;;;7.30;91.70;;;;;;5071785;28;20290;-88
2022/11/16 10:49:02;;;;;;;59.00;27.37;;;7.30;91.70;;;;;;5073073;28;20229;-88
2022/11/16 10:51:27;;;;;;;55.00;30.17;;;7.30;91.90;;;;;;5071951;28;20629;-88
2022/11/16 10:53:54;;;;;;;47.10;26.07;;;7.30;91.90;;;;;;5071827;28;20190;-88
2022/11/16 10:56:39;;;;;;;61.07;30.47;;;7.30;92.00;;;;;;5071629;28;20206;-88
2022/11/16 10:59:12;;;;;;;57.40;27.40;;;7.20;92.00;;;;;;5073108;28;20168;-89
2022/11/16 11:02:18;;;;;;;59.63;31.97;;;7.20;92.10;;;;;;5073965;28;20195;-89
2022/11/16 11:04:37;;;;;;;68.37;32.63;;;7.30;92.20;;;;;;5077162;28;20253;-90
2022/11/16 11:07:27;;;;;;;60.27;31.27;;;7.30;92.20;;;;;;5075854;28;20204;-89
2022/11/16 11:09:53;;;;;;;54.33;26.57;;;7.30;92.10;;;;;;5075562;28;20195;-88
2022/11/16 11:12:39;;;;;;;57.67;28.83;;;7.30;92.20;;;;;;5075774;28;20176;-89
2022/11/16 11:15:10;;;;;;;63.97;29.73;;;7.30;92.10;;;;;;5075793;28;20203;-89
2022/11/16 11:17:46;;;;;;;65.17;32.10;;;7.30;92.10;;;;;;5076750;28;20179;-89
2022/11/16 11:20:11;;;;;;;54.80;30.43;;;7.30;92.10;;;;;;5075462;28;20270;-88
2022/11/16 11:23:01;;;;;;;59.27;29.23;;;7.30;92.10;;;;;;5076857;28;20250;-89
2022/11/16 11:25:40;;;;;;;65.90;29.77;;;7.30;92.10;;;;;;5075267;28;20691;-89
2022/11/16 11:28:11;;;;;;;65.00;33.20;;;7.30;92.10;;;;;;5076391;28;20171;-89
2022/11/16 11:30:38;;;;;;;61.63;28.23;;;7.30;92.10;;;;;;5075445;28;20176;-88
2022/11/16 11:33:11;;;;;;;57.77;29.47;;;7.30;92.00;;;;;;5076573;28;20175;-89
2022/11/16 11:35:36;;;;;;;60.20;30.53;;;7.30;92.00;;;;;;5075183;28;20215;-89
2022/11/16 11:38:03;;;;;;;60.33;29.70;;;7.30;92.00;;;;;;5076370;28;20183;-90
2022/11/16 11:40:30;;;;;;;57.00;27.13;;;7.30;92.10;;;;;;5075052;28;20233;-89
2022/11/16 11:43:04;;;;;;;63.43;30.07;;;7.30;92.10;;;;;;5075342;28;20172;-90
2022/11/16 11:45:30;;;;;;;60.83;33.23;;;7.30;92.10;;;;;;5074865;28;20283;-89
2022/11/16 11:48:01;;;;;;;62.83;30.93;;;7.30;92.00;;;;;;5076106;28;20199;-88
2022/11/16 11:51:11;;;;;;;69.60;31.77;;;7.30;92.00;;;;;;5076072;28;20187;-90
2022/11/16 11:53:55;;;;;;;62.23;30.07;;;7.30;91.90;;;;;;5057179;28;20189;-90
2022/11/16 11:56:21;;;;;;;64.20;31.77;;;7.30;91.80;;;;;;5057321;28;20206;-90
2022/11/16 11:58:48;;;;;;;60.30;28.57;;;7.30;91.70;;;;;;5067240;28;20199;-88
2022/11/16 12:01:39;;;;;;;67.53;31.10;;;7.30;91.70;;;;;;5074704;28;20195;-88
2022/11/16 12:04:27;;;;;;;66.40;30.43;;;7.30;91.70;;;;;;5075550;28;20187;-88
2022/11/16 12:07:19;;;;;;;63.73;30.63;;;7.40;91.70;;;;;;5075250;28;20176;-89
2022/11/16 12:09:53;;;;;;;60.67;30.60;;;7.40;91.50;;;;;;5075197;28;20211;-89
2022/11/16 12:12:50;;;;;;;60.10;29.90;;;7.50;91.60;;;;;;5073264;28;20170;-89
2022/11/16 12:15:49;;;;;;;59.33;29.60;;;7.50;91.50;;;;;;5074152;28;20192;-88
2022/11/16 12:18:26;;;;;;;62.70;32.87;;;7.50;91.50;;;;;;5075083;28;20171;-89
2022/11/16 12:21:12;;;;;;;59.97;29.00;;;7.50;91.50;;;;;;5076238;28;20187;-88
2022/11/16 12:23:44;;;;;;;60.23;29.67;;;7.50;91.40;;;;;;5074986;28;20194;-88
2022/11/16 12:26:20;;;;;;;67.87;32.97;;;7.50;91.40;;;;;;5074826;28;20195;-88
2022/11/16 12:29:08;;;;;;;59.10;31.10;;;7.60;91.40;;;;;;5075095;28;20163;-88
2022/11/16 12:31:49;;;;;;;55.27;26.77;;;7.60;91.40;;;;;;5075260;28;20547;-88
2022/11/16 12:34:41;;;;;;;63.80;29.97;;;7.60;91.40;;;;;;5075265;28;20178;-88
2022/11/16 12:37:19;;;;;;;53.87;26.50;;;7.70;91.40;;;;;;5076279;28;20190;-88
2022/11/16 12:40:00;;;;;;;62.47;28.57;;;7.60;91.40;;;;;;5076007;28;20201;-88
2022/11/16 12:42:58;;;;;;;71.33;31.00;;;7.70;91.30;;;;;;5074568;28;20205;-88
2022/11/16 12:45:49;;;;;;;71.73;33.00;;;7.70;91.30;;;;;;5074855;28;20207;-88
2022/11/16 12:48:48;;;;;;;67.13;33.00;;;7.70;91.20;;;;;;5076028;28;20244;-88
2022/11/16 12:51:28;;;;;;;59.30;30.50;;;7.70;91.20;;;;;;5074847;28;20171;-88
2022/11/16 12:54:19;;;;;;;70.17;32.87;;;7.70;91.20;;;;;;5075705;28;20167;-88
2022/11/16 12:57:09;;;;;;;65.80;32.77;;;7.80;91.30;;;;;;5074919;28;20221;-88
2022/11/16 12:59:47;;;;;;;60.67;31.23;;;7.80;91.30;;;;;;5074359;28;20172;-88
2022/11/16 13:02:27;;;;;;;57.37;26.70;;;7.80;91.30;;;;;;5074239;28;20678;-88
2022/11/16 13:05:15;;;;;;;70.67;32.77;;;7.80;91.30;;;;;;5074194;28;20194;-88
2022/11/16 13:07:56;;;;;;;70.27;33.13;;;7.80;91.30;;;;;;5074364;28;20164;-88
2022/11/16 13:10:26;;;;;;;68.17;32.00;;;7.80;91.30;;;;;;5074444;28;20652;-88
2022/11/16 13:12:57;;;;;;;71.73;32.70;;;7.80;91.40;;;;;;5075499;28;20168;-88
2022/11/16 13:15:37;;;;;;;71.47;33.40;;;7.80;91.40;;;;;;5075758;28;20260;-87
2022/11/16 13:18:06;;;;;;;76.27;35.00;;;7.80;91.40;;;;;;5074208;28;20176;-88
2022/11/16 13:20:45;;;;;;;77.60;34.13;;;7.80;91.50;;;;;;5075225;28;20605;-88
2022/11/16 13:23:17;;;;;;;71.00;34.00;;;7.80;91.50;;;;;;5073748;28;20178;-88
2022/11/16 13:25:54;;;;;;;76.20;32.60;;;7.80;91.50;;;;;;5073999;28;20202;-88
2022/11/16 13:28:38;;;;;;;66.63;32.10;;;7.80;91.50;;;;;;5074488;28;20206;-88
2022/11/16 13:31:16;;;;;;;72.40;32.83;;;7.80;91.60;;;;;;5074241;28;20270;-88
2022/11/16 13:33:43;;;;;;;71.87;33.53;;;7.80;91.70;;;;;;5075083;28;20316;-88